sensor_id;sensor_type;location;lat;lon;timestamp;P1;durP1;ratioP1;P2;durP2;ratioP2
16822;SDS011;8528;49.976;11.858;2023-02-11T00:02:07;23.47;;;14.43;;
16822;SDS011;8528;49.976;11.858;2023-02-11T00:04:34;27.67;;;15.90;;
16822;SDS011;8528;49.976;11.858;2023-02-11T00:07:01;26.97;;;14.60;;
16822;SDS011;8528;49.976;11.858;2023-02-11T00:09:27;25.07;;;13.97;;
16822;SDS011;8528;49.976;11.858;2023-02-11T00:11:57;26.23;;;13.60;;
16822;SDS011;8528;49.976;11.858;2023-02-11T00:14:23;28.60;;;14.37;;
16822;SDS011;8528;49.976;11.858;2023-02-11T00:16:50;27.43;;;15.10;;
16822;SDS011;8528;49.976;11.858;2023-02-11T00:19:17;27.03;;;15.37;;
16822;SDS011;8528;49.976;11.858;2023-02-11T00:21:44;25.83;;;14.33;;
16822;SDS011;8528;49.976;11.858;2023-02-11T00:24:10;23.73;;;14.77;;
16822;SDS011;8528;49.976;11.858;2023-02-11T00:26:37;26.33;;;15.17;;
16822;SDS011;8528;49.976;11.858;2023-02-11T00:29:04;24.90;;;14.80;;
16822;SDS011;8528;49.976;11.858;2023-02-11T00:31:31;27.43;;;15.00;;
16822;SDS011;8528;49.976;11.858;2023-02-11T00:33:58;32.57;;;15.87;;
16822;SDS011;8528;49.976;11.858;2023-02-11T00:36:26;31.27;;;15.80;;
16822;SDS011;8528;49.976;11.858;2023-02-11T00:38:54;29.83;;;16.30;;
16822;SDS011;8528;49.976;11.858;2023-02-11T00:41:22;27.60;;;15.33;;
16822;SDS011;8528;49.976;11.858;2023-02-11T00:43:50;28.83;;;15.53;;
16822;SDS011;8528;49.976;11.858;2023-02-11T00:46:17;30.13;;;16.10;;
16822;SDS011;8528;49.976;11.858;2023-02-11T00:48:44;28.63;;;16.07;;
16822;SDS011;8528;49.976;11.858;2023-02-11T00:51:11;27.23;;;16.83;;
16822;SDS011;8528;49.976;11.858;2023-02-11T00:53:38;33.57;;;17.17;;
16822;SDS011;8528;49.976;11.858;2023-02-11T00:56:05;33.00;;;17.00;;
16822;SDS011;8528;49.976;11.858;2023-02-11T00:58:33;31.43;;;16.87;;
16822;SDS011;8528;49.976;11.858;2023-02-11T01:01:00;33.77;;;16.13;;
16822;SDS011;8528;49.976;11.858;2023-02-11T01:03:27;29.87;;;16.50;;
16822;SDS011;8528;49.976;11.858;2023-02-11T01:05:54;33.70;;;16.73;;
16822;SDS011;8528;49.976;11.858;2023-02-11T01:08:21;31.10;;;16.37;;
16822;SDS011;8528;49.976;11.858;2023-02-11T01:10:55;29.43;;;16.33;;
16822;SDS011;8528;49.976;11.858;2023-02-11T01:13:27;29.93;;;16.67;;
16822;SDS011;8528;49.976;11.858;2023-02-11T01:15:55;27.97;;;16.63;;
16822;SDS011;8528;49.976;11.858;2023-02-11T01:18:22;30.97;;;16.30;;
16822;SDS011;8528;49.976;11.858;2023-02-11T01:20:50;32.03;;;17.90;;
16822;SDS011;8528;49.976;11.858;2023-02-11T01:23:18;28.00;;;16.10;;
16822;SDS011;8528;49.976;11.858;2023-02-11T01:25:45;32.13;;;18.23;;
16822;SDS011;8528;49.976;11.858;2023-02-11T01:28:20;34.10;;;16.67;;
16822;SDS011;8528;49.976;11.858;2023-02-11T01:30:50;33.67;;;16.97;;
16822;SDS011;8528;49.976;11.858;2023-02-11T01:33:17;30.83;;;17.53;;
16822;SDS011;8528;49.976;11.858;2023-02-11T01:35:44;34.37;;;17.13;;
16822;SDS011;8528;49.976;11.858;2023-02-11T01:38:16;31.20;;;17.23;;
16822;SDS011;8528;49.976;11.858;2023-02-11T01:40:46;30.43;;;16.47;;
16822;SDS011;8528;49.976;11.858;2023-02-11T01:43:14;29.97;;;16.60;;
16822;SDS011;8528;49.976;11.858;2023-02-11T01:45:49;27.23;;;16.33;;
16822;SDS011;8528;49.976;11.858;2023-02-11T01:48:35;28.33;;;15.53;;
16822;SDS011;8528;49.976;11.858;2023-02-11T01:51:08;28.87;;;15.17;;
16822;SDS011;8528;49.976;11.858;2023-02-11T01:53:41;31.33;;;15.70;;
16822;SDS011;8528;49.976;11.858;2023-02-11T01:56:28;30.37;;;15.20;;
16822;SDS011;8528;49.976;11.858;2023-02-11T01:59:16;31.70;;;17.07;;
16822;SDS011;8528;49.976;11.858;2023-02-11T02:01:50;31.83;;;17.47;;
16822;SDS011;8528;49.976;11.858;2023-02-11T02:04:21;32.67;;;16.83;;
16822;SDS011;8528;49.976;11.858;2023-02-11T02:06:55;27.60;;;16.00;;
16822;SDS011;8528;49.976;11.858;2023-02-11T02:09:28;31.00;;;16.90;;
16822;SDS011;8528;49.976;11.858;2023-02-11T02:12:01;33.03;;;16.70;;
16822;SDS011;8528;49.976;11.858;2023-02-11T02:14:28;27.67;;;15.57;;
16822;SDS011;8528;49.976;11.858;2023-02-11T02:16:55;29.93;;;16.87;;
16822;SDS011;8528;49.976;11.858;2023-02-11T02:19:38;31.13;;;17.17;;
16822;SDS011;8528;49.976;11.858;2023-02-11T02:25:24;26.83;;;14.90;;
16822;SDS011;8528;49.976;11.858;2023-02-11T02:30:49;24.27;;;14.07;;
16822;SDS011;8528;49.976;11.858;2023-02-11T02:33:29;28.47;;;14.33;;
16822;SDS011;8528;49.976;11.858;2023-02-11T02:36:28;30.67;;;15.00;;
16822;SDS011;8528;49.976;11.858;2023-02-11T02:39:04;26.13;;;14.33;;
16822;SDS011;8528;49.976;11.858;2023-02-11T02:41:36;24.47;;;13.23;;
16822;SDS011;8528;49.976;11.858;2023-02-11T02:44:04;26.63;;;14.20;;
16822;SDS011;8528;49.976;11.858;2023-02-11T02:46:33;27.63;;;14.17;;
16822;SDS011;8528;49.976;11.858;2023-02-11T02:49:01;26.70;;;13.97;;
16822;SDS011;8528;49.976;11.858;2023-02-11T02:56:55;29.27;;;14.20;;
16822;SDS011;8528;49.976;11.858;2023-02-11T03:02:33;28.47;;;14.33;;
16822;SDS011;8528;49.976;11.858;2023-02-11T03:07:47;26.53;;;15.27;;
16822;SDS011;8528;49.976;11.858;2023-02-11T03:12:57;24.73;;;15.23;;
16822;SDS011;8528;49.976;11.858;2023-02-11T03:15:27;32.23;;;16.70;;
16822;SDS011;8528;49.976;11.858;2023-02-11T03:17:57;25.30;;;14.77;;
16822;SDS011;8528;49.976;11.858;2023-02-11T03:20:27;30.53;;;14.83;;
16822;SDS011;8528;49.976;11.858;2023-02-11T03:23:06;28.87;;;14.50;;
16822;SDS011;8528;49.976;11.858;2023-02-11T03:26:12;26.10;;;14.30;;
16822;SDS011;8528;49.976;11.858;2023-02-11T03:31:49;29.70;;;16.27;;
16822;SDS011;8528;49.976;11.858;2023-02-11T03:39:53;33.37;;;16.53;;
16822;SDS011;8528;49.976;11.858;2023-02-11T03:42:25;35.23;;;16.57;;
16822;SDS011;8528;49.976;11.858;2023-02-11T03:44:58;30.03;;;16.10;;
16822;SDS011;8528;49.976;11.858;2023-02-11T03:47:29;36.83;;;17.37;;
16822;SDS011;8528;49.976;11.858;2023-02-11T03:50:01;37.33;;;18.30;;
16822;SDS011;8528;49.976;11.858;2023-02-11T03:52:30;33.43;;;16.50;;
16822;SDS011;8528;49.976;11.858;2023-02-11T03:54:59;30.13;;;16.70;;
16822;SDS011;8528;49.976;11.858;2023-02-11T03:57:30;32.23;;;17.30;;
16822;SDS011;8528;49.976;11.858;2023-02-11T03:59:59;32.70;;;15.50;;
16822;SDS011;8528;49.976;11.858;2023-02-11T04:02:28;34.20;;;16.63;;
16822;SDS011;8528;49.976;11.858;2023-02-11T04:04:58;34.17;;;17.63;;
16822;SDS011;8528;49.976;11.858;2023-02-11T04:07:25;31.97;;;16.03;;
16822;SDS011;8528;49.976;11.858;2023-02-11T04:09:53;31.73;;;16.53;;
16822;SDS011;8528;49.976;11.858;2023-02-11T04:12:19;34.47;;;17.07;;
16822;SDS011;8528;49.976;11.858;2023-02-11T04:14:46;29.20;;;15.40;;
16822;SDS011;8528;49.976;11.858;2023-02-11T04:17:13;32.83;;;17.00;;
16822;SDS011;8528;49.976;11.858;2023-02-11T04:19:40;28.10;;;15.37;;
16822;SDS011;8528;49.976;11.858;2023-02-11T04:22:07;30.90;;;16.27;;
16822;SDS011;8528;49.976;11.858;2023-02-11T04:24:34;34.90;;;16.83;;
16822;SDS011;8528;49.976;11.858;2023-02-11T04:27:01;33.90;;;17.00;;
16822;SDS011;8528;49.976;11.858;2023-02-11T04:29:27;34.67;;;16.07;;
16822;SDS011;8528;49.976;11.858;2023-02-11T04:31:54;34.13;;;16.83;;
16822;SDS011;8528;49.976;11.858;2023-02-11T04:34:21;32.37;;;15.83;;
16822;SDS011;8528;49.976;11.858;2023-02-11T04:36:49;29.17;;;16.17;;
16822;SDS011;8528;49.976;11.858;2023-02-11T04:39:16;33.50;;;18.23;;
16822;SDS011;8528;49.976;11.858;2023-02-11T04:41:43;34.33;;;17.40;;
16822;SDS011;8528;49.976;11.858;2023-02-11T04:44:09;32.00;;;17.47;;
16822;SDS011;8528;49.976;11.858;2023-02-11T04:46:36;28.63;;;16.60;;
16822;SDS011;8528;49.976;11.858;2023-02-11T04:49:03;37.60;;;17.57;;
16822;SDS011;8528;49.976;11.858;2023-02-11T04:51:30;32.13;;;17.97;;
16822;SDS011;8528;49.976;11.858;2023-02-11T04:53:57;34.63;;;17.07;;
16822;SDS011;8528;49.976;11.858;2023-02-11T04:56:23;31.70;;;16.90;;
16822;SDS011;8528;49.976;11.858;2023-02-11T04:58:50;33.03;;;16.77;;
16822;SDS011;8528;49.976;11.858;2023-02-11T05:01:17;34.30;;;17.60;;
16822;SDS011;8528;49.976;11.858;2023-02-11T05:03:44;34.83;;;17.43;;
16822;SDS011;8528;49.976;11.858;2023-02-11T05:06:11;37.13;;;17.23;;
16822;SDS011;8528;49.976;11.858;2023-02-11T05:08:38;31.80;;;17.67;;
16822;SDS011;8528;49.976;11.858;2023-02-11T05:11:05;34.43;;;17.40;;
16822;SDS011;8528;49.976;11.858;2023-02-11T05:13:33;31.97;;;17.50;;
16822;SDS011;8528;49.976;11.858;2023-02-11T05:16:00;32.70;;;17.30;;
16822;SDS011;8528;49.976;11.858;2023-02-11T05:18:26;37.03;;;18.10;;
16822;SDS011;8528;49.976;11.858;2023-02-11T05:20:53;35.47;;;19.27;;
16822;SDS011;8528;49.976;11.858;2023-02-11T05:23:20;38.07;;;19.27;;
16822;SDS011;8528;49.976;11.858;2023-02-11T05:25:47;35.67;;;18.70;;
16822;SDS011;8528;49.976;11.858;2023-02-11T05:28:14;35.07;;;18.23;;
16822;SDS011;8528;49.976;11.858;2023-02-11T05:30:41;35.80;;;17.80;;
16822;SDS011;8528;49.976;11.858;2023-02-11T05:33:08;34.80;;;17.90;;
16822;SDS011;8528;49.976;11.858;2023-02-11T05:35:35;39.17;;;18.70;;
16822;SDS011;8528;49.976;11.858;2023-02-11T05:38:03;37.03;;;18.77;;
16822;SDS011;8528;49.976;11.858;2023-02-11T05:40:30;38.00;;;19.27;;
16822;SDS011;8528;49.976;11.858;2023-02-11T05:42:57;41.53;;;19.97;;
16822;SDS011;8528;49.976;11.858;2023-02-11T05:45:24;36.90;;;18.57;;
16822;SDS011;8528;49.976;11.858;2023-02-11T05:47:51;39.40;;;18.90;;
16822;SDS011;8528;49.976;11.858;2023-02-11T05:50:17;46.90;;;20.43;;
16822;SDS011;8528;49.976;11.858;2023-02-11T05:52:44;45.23;;;20.97;;
16822;SDS011;8528;49.976;11.858;2023-02-11T05:55:12;41.90;;;19.27;;
16822;SDS011;8528;49.976;11.858;2023-02-11T05:57:38;43.57;;;19.77;;
16822;SDS011;8528;49.976;11.858;2023-02-11T06:00:06;45.80;;;21.13;;
16822;SDS011;8528;49.976;11.858;2023-02-11T06:02:33;41.23;;;19.90;;
16822;SDS011;8528;49.976;11.858;2023-02-11T06:05:00;42.67;;;21.57;;
16822;SDS011;8528;49.976;11.858;2023-02-11T06:07:27;42.73;;;20.30;;
16822;SDS011;8528;49.976;11.858;2023-02-11T06:09:53;45.43;;;21.67;;
16822;SDS011;8528;49.976;11.858;2023-02-11T06:12:20;44.03;;;21.10;;
16822;SDS011;8528;49.976;11.858;2023-02-11T06:14:47;44.00;;;21.67;;
16822;SDS011;8528;49.976;11.858;2023-02-11T06:17:14;48.27;;;21.90;;
16822;SDS011;8528;49.976;11.858;2023-02-11T06:19:41;43.30;;;21.03;;
16822;SDS011;8528;49.976;11.858;2023-02-11T06:22:07;42.00;;;20.13;;
16822;SDS011;8528;49.976;11.858;2023-02-11T06:24:34;44.47;;;21.47;;
16822;SDS011;8528;49.976;11.858;2023-02-11T06:27:22;38.30;;;19.83;;
16822;SDS011;8528;49.976;11.858;2023-02-11T06:29:49;41.77;;;19.37;;
16822;SDS011;8528;49.976;11.858;2023-02-11T06:32:18;41.87;;;20.83;;
16822;SDS011;8528;49.976;11.858;2023-02-11T06:35:05;35.77;;;19.30;;
16822;SDS011;8528;49.976;11.858;2023-02-11T06:37:35;37.50;;;18.83;;
16822;SDS011;8528;49.976;11.858;2023-02-11T06:40:02;40.57;;;20.30;;
16822;SDS011;8528;49.976;11.858;2023-02-11T06:42:29;40.40;;;19.77;;
16822;SDS011;8528;49.976;11.858;2023-02-11T06:45:03;43.50;;;20.37;;
16822;SDS011;8528;49.976;11.858;2023-02-11T06:47:38;41.07;;;19.30;;
16822;SDS011;8528;49.976;11.858;2023-02-11T06:50:06;38.20;;;18.77;;
16822;SDS011;8528;49.976;11.858;2023-02-11T06:52:36;40.20;;;19.27;;
16822;SDS011;8528;49.976;11.858;2023-02-11T06:55:03;36.97;;;20.67;;
16822;SDS011;8528;49.976;11.858;2023-02-11T06:57:30;38.97;;;18.17;;
16822;SDS011;8528;49.976;11.858;2023-02-11T06:59:57;36.00;;;18.93;;
16822;SDS011;8528;49.976;11.858;2023-02-11T07:02:24;32.77;;;16.77;;
16822;SDS011;8528;49.976;11.858;2023-02-11T07:04:51;33.80;;;17.70;;
16822;SDS011;8528;49.976;11.858;2023-02-11T07:07:18;37.10;;;17.97;;
16822;SDS011;8528;49.976;11.858;2023-02-11T07:09:44;33.47;;;17.30;;
16822;SDS011;8528;49.976;11.858;2023-02-11T07:12:11;33.27;;;16.33;;
16822;SDS011;8528;49.976;11.858;2023-02-11T07:14:38;30.87;;;17.00;;
16822;SDS011;8528;49.976;11.858;2023-02-11T07:17:05;27.77;;;15.97;;
16822;SDS011;8528;49.976;11.858;2023-02-11T07:19:32;30.27;;;17.03;;
16822;SDS011;8528;49.976;11.858;2023-02-11T07:21:59;30.67;;;16.70;;
16822;SDS011;8528;49.976;11.858;2023-02-11T07:24:26;33.00;;;17.87;;
16822;SDS011;8528;49.976;11.858;2023-02-11T07:26:53;30.03;;;16.03;;
16822;SDS011;8528;49.976;11.858;2023-02-11T07:29:20;33.17;;;17.20;;
16822;SDS011;8528;49.976;11.858;2023-02-11T07:31:46;30.17;;;16.23;;
16822;SDS011;8528;49.976;11.858;2023-02-11T07:34:13;30.47;;;16.50;;
16822;SDS011;8528;49.976;11.858;2023-02-11T07:36:40;31.10;;;16.77;;
16822;SDS011;8528;49.976;11.858;2023-02-11T07:39:08;34.77;;;18.10;;
16822;SDS011;8528;49.976;11.858;2023-02-11T07:41:35;36.53;;;18.27;;
16822;SDS011;8528;49.976;11.858;2023-02-11T07:44:03;34.23;;;18.73;;
16822;SDS011;8528;49.976;11.858;2023-02-11T07:46:30;37.40;;;19.17;;
16822;SDS011;8528;49.976;11.858;2023-02-11T07:48:58;33.20;;;17.30;;
16822;SDS011;8528;49.976;11.858;2023-02-11T07:51:26;35.73;;;18.80;;
16822;SDS011;8528;49.976;11.858;2023-02-11T07:53:54;31.63;;;17.53;;
16822;SDS011;8528;49.976;11.858;2023-02-11T07:56:23;38.83;;;19.10;;
16822;SDS011;8528;49.976;11.858;2023-02-11T07:58:50;38.20;;;19.50;;
16822;SDS011;8528;49.976;11.858;2023-02-11T08:01:18;38.53;;;20.47;;
16822;SDS011;8528;49.976;11.858;2023-02-11T08:03:47;41.73;;;21.83;;
16822;SDS011;8528;49.976;11.858;2023-02-11T08:06:15;39.00;;;18.93;;
16822;SDS011;8528;49.976;11.858;2023-02-11T08:08:43;34.53;;;18.97;;
16822;SDS011;8528;49.976;11.858;2023-02-11T08:11:14;40.97;;;18.20;;
16822;SDS011;8528;49.976;11.858;2023-02-11T08:13:46;33.37;;;18.50;;
16822;SDS011;8528;49.976;11.858;2023-02-11T08:18:46;34.23;;;19.20;;
16822;SDS011;8528;49.976;11.858;2023-02-11T08:21:14;32.70;;;18.40;;
16822;SDS011;8528;49.976;11.858;2023-02-11T08:23:41;33.00;;;17.43;;
16822;SDS011;8528;49.976;11.858;2023-02-11T08:26:12;31.90;;;17.17;;
16822;SDS011;8528;49.976;11.858;2023-02-11T08:28:41;34.10;;;18.70;;
16822;SDS011;8528;49.976;11.858;2023-02-11T08:31:10;33.00;;;18.67;;
16822;SDS011;8528;49.976;11.858;2023-02-11T08:33:39;32.47;;;17.93;;
16822;SDS011;8528;49.976;11.858;2023-02-11T08:36:11;35.80;;;20.30;;
16822;SDS011;8528;49.976;11.858;2023-02-11T08:38:39;36.30;;;19.57;;
16822;SDS011;8528;49.976;11.858;2023-02-11T08:41:06;35.73;;;20.87;;
16822;SDS011;8528;49.976;11.858;2023-02-11T08:43:33;35.70;;;19.47;;
16822;SDS011;8528;49.976;11.858;2023-02-11T08:46:01;38.80;;;20.07;;
16822;SDS011;8528;49.976;11.858;2023-02-11T08:48:28;37.20;;;18.80;;
16822;SDS011;8528;49.976;11.858;2023-02-11T08:50:56;38.00;;;20.00;;
16822;SDS011;8528;49.976;11.858;2023-02-11T08:53:23;33.97;;;18.87;;
16822;SDS011;8528;49.976;11.858;2023-02-11T08:55:50;31.97;;;17.90;;
16822;SDS011;8528;49.976;11.858;2023-02-11T08:58:19;28.70;;;16.70;;
16822;SDS011;8528;49.976;11.858;2023-02-11T09:00:47;30.13;;;17.87;;
16822;SDS011;8528;49.976;11.858;2023-02-11T09:03:15;31.70;;;18.30;;
16822;SDS011;8528;49.976;11.858;2023-02-11T09:05:43;29.33;;;16.33;;
16822;SDS011;8528;49.976;11.858;2023-02-11T09:08:12;35.30;;;17.97;;
16822;SDS011;8528;49.976;11.858;2023-02-11T09:10:48;32.53;;;18.63;;
16822;SDS011;8528;49.976;11.858;2023-02-11T09:13:16;28.97;;;17.13;;
16822;SDS011;8528;49.976;11.858;2023-02-11T09:15:46;35.50;;;17.07;;
16822;SDS011;8528;49.976;11.858;2023-02-11T09:18:13;36.97;;;20.93;;
16822;SDS011;8528;49.976;11.858;2023-02-11T09:20:39;34.97;;;17.70;;
16822;SDS011;8528;49.976;11.858;2023-02-11T09:23:06;33.40;;;16.87;;
16822;SDS011;8528;49.976;11.858;2023-02-11T09:25:37;28.47;;;17.30;;
16822;SDS011;8528;49.976;11.858;2023-02-11T09:28:05;32.67;;;18.20;;
16822;SDS011;8528;49.976;11.858;2023-02-11T09:30:32;32.57;;;17.63;;
16822;SDS011;8528;49.976;11.858;2023-02-11T09:33:01;30.17;;;17.07;;
16822;SDS011;8528;49.976;11.858;2023-02-11T09:35:28;29.00;;;18.03;;
16822;SDS011;8528;49.976;11.858;2023-02-11T09:37:55;27.37;;;16.30;;
16822;SDS011;8528;49.976;11.858;2023-02-11T09:40:22;29.67;;;18.03;;
16822;SDS011;8528;49.976;11.858;2023-02-11T09:42:50;30.53;;;17.20;;
16822;SDS011;8528;49.976;11.858;2023-02-11T09:45:29;33.17;;;18.07;;
16822;SDS011;8528;49.976;11.858;2023-02-11T09:47:58;31.43;;;17.37;;
16822;SDS011;8528;49.976;11.858;2023-02-11T09:50:32;32.13;;;17.47;;
16822;SDS011;8528;49.976;11.858;2023-02-11T09:55:54;32.27;;;16.50;;
16822;SDS011;8528;49.976;11.858;2023-02-11T09:58:26;28.07;;;16.83;;
16822;SDS011;8528;49.976;11.858;2023-02-11T10:07:01;32.33;;;17.70;;
16822;SDS011;8528;49.976;11.858;2023-02-11T10:13:02;30.47;;;17.77;;
16822;SDS011;8528;49.976;11.858;2023-02-11T10:15:47;32.93;;;17.60;;
16822;SDS011;8528;49.976;11.858;2023-02-11T10:18:39;34.10;;;18.20;;
16822;SDS011;8528;49.976;11.858;2023-02-11T10:24:22;28.63;;;17.17;;
16822;SDS011;8528;49.976;11.858;2023-02-11T10:26:49;31.70;;;17.40;;
16822;SDS011;8528;49.976;11.858;2023-02-11T10:29:21;29.63;;;17.73;;
16822;SDS011;8528;49.976;11.858;2023-02-11T10:31:56;27.77;;;16.77;;
16822;SDS011;8528;49.976;11.858;2023-02-11T10:34:25;32.73;;;18.33;;
16822;SDS011;8528;49.976;11.858;2023-02-11T10:36:52;27.03;;;17.43;;
16822;SDS011;8528;49.976;11.858;2023-02-11T10:39:20;33.63;;;18.00;;
16822;SDS011;8528;49.976;11.858;2023-02-11T10:42:01;27.47;;;16.17;;
16822;SDS011;8528;49.976;11.858;2023-02-11T10:44:35;33.57;;;19.43;;
16822;SDS011;8528;49.976;11.858;2023-02-11T10:47:21;40.43;;;20.60;;
16822;SDS011;8528;49.976;11.858;2023-02-11T10:49:50;32.07;;;17.70;;
16822;SDS011;8528;49.976;11.858;2023-02-11T10:52:22;34.00;;;18.43;;
16822;SDS011;8528;49.976;11.858;2023-02-11T10:57:42;32.63;;;19.73;;
16822;SDS011;8528;49.976;11.858;2023-02-11T11:03:06;35.03;;;18.87;;
16822;SDS011;8528;49.976;11.858;2023-02-11T11:05:55;32.90;;;18.10;;
16822;SDS011;8528;49.976;11.858;2023-02-11T11:11:19;33.57;;;17.97;;
16822;SDS011;8528;49.976;11.858;2023-02-11T11:16:33;34.30;;;18.77;;
16822;SDS011;8528;49.976;11.858;2023-02-11T11:21:50;30.67;;;17.10;;
16822;SDS011;8528;49.976;11.858;2023-02-11T11:24:20;34.73;;;18.30;;
16822;SDS011;8528;49.976;11.858;2023-02-11T11:26:53;29.17;;;17.40;;
16822;SDS011;8528;49.976;11.858;2023-02-11T11:33:27;33.03;;;18.73;;
16822;SDS011;8528;49.976;11.858;2023-02-11T11:35:57;36.27;;;18.93;;
16822;SDS011;8528;49.976;11.858;2023-02-11T11:38:30;35.70;;;18.30;;
16822;SDS011;8528;49.976;11.858;2023-02-11T11:41:18;34.10;;;19.40;;
16822;SDS011;8528;49.976;11.858;2023-02-11T11:46:42;34.37;;;18.33;;
16822;SDS011;8528;49.976;11.858;2023-02-11T11:49:27;35.10;;;19.73;;
16822;SDS011;8528;49.976;11.858;2023-02-11T11:57:42;32.73;;;19.27;;
16822;SDS011;8528;49.976;11.858;2023-02-11T12:00:13;30.33;;;17.80;;
16822;SDS011;8528;49.976;11.858;2023-02-11T12:03:09;31.97;;;18.43;;
16822;SDS011;8528;49.976;11.858;2023-02-11T12:08:36;35.07;;;18.60;;
16822;SDS011;8528;49.976;11.858;2023-02-11T12:11:34;36.33;;;19.60;;
16822;SDS011;8528;49.976;11.858;2023-02-11T12:25:33;30.17;;;17.83;;
16822;SDS011;8528;49.976;11.858;2023-02-11T12:31:07;33.53;;;18.63;;
16822;SDS011;8528;49.976;11.858;2023-02-11T12:34:20;36.00;;;18.90;;
16822;SDS011;8528;49.976;11.858;2023-02-11T12:37:28;33.67;;;18.83;;
16822;SDS011;8528;49.976;11.858;2023-02-11T12:40:02;32.77;;;19.17;;
16822;SDS011;8528;49.976;11.858;2023-02-11T12:42:46;36.20;;;19.33;;
16822;SDS011;8528;49.976;11.858;2023-02-11T12:45:45;35.93;;;18.47;;
16822;SDS011;8528;49.976;11.858;2023-02-11T12:54:53;41.83;;;25.17;;
16822;SDS011;8528;49.976;11.858;2023-02-11T12:57:34;44.03;;;26.60;;
16822;SDS011;8528;49.976;11.858;2023-02-11T13:00:05;41.23;;;21.87;;
16822;SDS011;8528;49.976;11.858;2023-02-11T13:08:26;32.57;;;19.47;;
16822;SDS011;8528;49.976;11.858;2023-02-11T13:11:01;33.53;;;21.10;;
16822;SDS011;8528;49.976;11.858;2023-02-11T13:16:50;33.77;;;19.23;;
16822;SDS011;8528;49.976;11.858;2023-02-11T13:24:33;59.83;;;44.10;;
16822;SDS011;8528;49.976;11.858;2023-02-11T13:27:09;41.70;;;27.57;;
16822;SDS011;8528;49.976;11.858;2023-02-11T13:35:28;34.47;;;20.53;;
16822;SDS011;8528;49.976;11.858;2023-02-11T13:37:59;33.43;;;21.00;;
16822;SDS011;8528;49.976;11.858;2023-02-11T13:40:29;38.40;;;25.77;;
16822;SDS011;8528;49.976;11.858;2023-02-11T13:43:05;34.27;;;20.30;;
16822;SDS011;8528;49.976;11.858;2023-02-11T13:45:45;35.00;;;21.30;;
16822;SDS011;8528;49.976;11.858;2023-02-11T13:48:27;39.53;;;20.00;;
16822;SDS011;8528;49.976;11.858;2023-02-11T13:50:58;34.97;;;20.20;;
16822;SDS011;8528;49.976;11.858;2023-02-11T13:53:47;38.27;;;20.27;;
16822;SDS011;8528;49.976;11.858;2023-02-11T13:56:33;33.13;;;19.43;;
16822;SDS011;8528;49.976;11.858;2023-02-11T13:59:51;36.90;;;20.63;;
16822;SDS011;8528;49.976;11.858;2023-02-11T14:05:00;40.47;;;24.97;;
16822;SDS011;8528;49.976;11.858;2023-02-11T14:11:00;38.20;;;21.00;;
16822;SDS011;8528;49.976;11.858;2023-02-11T14:16:18;43.47;;;28.37;;
16822;SDS011;8528;49.976;11.858;2023-02-11T14:19:03;32.03;;;20.03;;
16822;SDS011;8528;49.976;11.858;2023-02-11T14:21:33;35.53;;;19.40;;
16822;SDS011;8528;49.976;11.858;2023-02-11T14:29:19;34.73;;;20.20;;
16822;SDS011;8528;49.976;11.858;2023-02-11T14:33:00;33.60;;;18.40;;
16822;SDS011;8528;49.976;11.858;2023-02-11T14:37:56;36.90;;;20.23;;
16822;SDS011;8528;49.976;11.858;2023-02-11T14:40:58;34.97;;;19.70;;
16822;SDS011;8528;49.976;11.858;2023-02-11T14:43:43;35.50;;;18.23;;
16822;SDS011;8528;49.976;11.858;2023-02-11T14:46:16;33.27;;;18.63;;
16822;SDS011;8528;49.976;11.858;2023-02-11T14:48:46;42.37;;;21.23;;
16822;SDS011;8528;49.976;11.858;2023-02-11T14:51:18;40.27;;;21.97;;
16822;SDS011;8528;49.976;11.858;2023-02-11T14:53:52;38.40;;;20.30;;
16822;SDS011;8528;49.976;11.858;2023-02-11T14:56:25;40.67;;;20.77;;
16822;SDS011;8528;49.976;11.858;2023-02-11T14:58:56;38.80;;;22.27;;
16822;SDS011;8528;49.976;11.858;2023-02-11T15:01:31;39.70;;;19.40;;
16822;SDS011;8528;49.976;11.858;2023-02-11T15:04:20;38.60;;;20.77;;
16822;SDS011;8528;49.976;11.858;2023-02-11T15:06:49;32.27;;;19.17;;
16822;SDS011;8528;49.976;11.858;2023-02-11T15:09:17;38.30;;;20.83;;
16822;SDS011;8528;49.976;11.858;2023-02-11T15:11:49;37.50;;;21.30;;
16822;SDS011;8528;49.976;11.858;2023-02-11T15:16:52;37.50;;;21.57;;
16822;SDS011;8528;49.976;11.858;2023-02-11T15:19:37;38.37;;;22.53;;
16822;SDS011;8528;49.976;11.858;2023-02-11T15:22:16;46.37;;;25.57;;
16822;SDS011;8528;49.976;11.858;2023-02-11T15:27:44;39.70;;;21.20;;
16822;SDS011;8528;49.976;11.858;2023-02-11T15:32:49;35.87;;;21.40;;
16822;SDS011;8528;49.976;11.858;2023-02-11T15:35:17;38.03;;;21.87;;
16822;SDS011;8528;49.976;11.858;2023-02-11T15:37:44;40.83;;;23.37;;
16822;SDS011;8528;49.976;11.858;2023-02-11T15:40:19;39.20;;;20.70;;
16822;SDS011;8528;49.976;11.858;2023-02-11T15:42:53;44.13;;;24.17;;
16822;SDS011;8528;49.976;11.858;2023-02-11T15:45:57;33.90;;;20.30;;
16822;SDS011;8528;49.976;11.858;2023-02-11T15:48:18;40.23;;;23.67;;
16822;SDS011;8528;49.976;11.858;2023-02-11T15:51:00;38.43;;;20.10;;
16822;SDS011;8528;49.976;11.858;2023-02-11T15:53:42;35.37;;;19.60;;
16822;SDS011;8528;49.976;11.858;2023-02-11T15:58:51;37.07;;;21.27;;
16822;SDS011;8528;49.976;11.858;2023-02-11T16:01:30;39.07;;;21.63;;
16822;SDS011;8528;49.976;11.858;2023-02-11T16:03:59;62.57;;;30.47;;
16822;SDS011;8528;49.976;11.858;2023-02-11T16:06:41;76.10;;;54.07;;
16822;SDS011;8528;49.976;11.858;2023-02-11T16:11:50;42.33;;;27.90;;
16822;SDS011;8528;49.976;11.858;2023-02-11T16:14:21;40.27;;;21.20;;
16822;SDS011;8528;49.976;11.858;2023-02-11T16:16:53;41.60;;;24.03;;
16822;SDS011;8528;49.976;11.858;2023-02-11T16:19:23;54.27;;;32.80;;
16822;SDS011;8528;49.976;11.858;2023-02-11T16:21:52;39.53;;;22.20;;
16822;SDS011;8528;49.976;11.858;2023-02-11T16:24:30;39.57;;;22.80;;
16822;SDS011;8528;49.976;11.858;2023-02-11T16:26:59;39.70;;;20.67;;
16822;SDS011;8528;49.976;11.858;2023-02-11T16:29:29;40.73;;;22.63;;
16822;SDS011;8528;49.976;11.858;2023-02-11T16:32:06;37.77;;;20.23;;
16822;SDS011;8528;49.976;11.858;2023-02-11T16:35:06;43.67;;;21.47;;
16822;SDS011;8528;49.976;11.858;2023-02-11T16:37:36;38.63;;;21.73;;
16822;SDS011;8528;49.976;11.858;2023-02-11T16:40:03;36.00;;;20.70;;
16822;SDS011;8528;49.976;11.858;2023-02-11T16:42:30;39.47;;;21.27;;
16822;SDS011;8528;49.976;11.858;2023-02-11T16:44:57;39.63;;;21.17;;
16822;SDS011;8528;49.976;11.858;2023-02-11T16:47:25;36.27;;;20.33;;
16822;SDS011;8528;49.976;11.858;2023-02-11T16:49:54;35.30;;;18.63;;
16822;SDS011;8528;49.976;11.858;2023-02-11T16:52:21;35.27;;;20.27;;
16822;SDS011;8528;49.976;11.858;2023-02-11T16:54:49;35.60;;;19.40;;
16822;SDS011;8528;49.976;11.858;2023-02-11T16:57:17;34.47;;;18.53;;
16822;SDS011;8528;49.976;11.858;2023-02-11T16:59:46;37.40;;;20.10;;
16822;SDS011;8528;49.976;11.858;2023-02-11T17:02:21;34.13;;;18.47;;
16822;SDS011;8528;49.976;11.858;2023-02-11T17:05:00;34.17;;;19.37;;
16822;SDS011;8528;49.976;11.858;2023-02-11T17:07:29;36.40;;;19.87;;
16822;SDS011;8528;49.976;11.858;2023-02-11T17:09:56;32.47;;;19.83;;
16822;SDS011;8528;49.976;11.858;2023-02-11T17:12:23;36.33;;;19.10;;
16822;SDS011;8528;49.976;11.858;2023-02-11T17:14:50;32.27;;;18.90;;